Time;durP1;ratioP1;P1;durP2;ratioP2;P2;SDS_P1;SDS_P2;PMS_P1;PMS_P2;Temp;Humidity;BMP_temperature;BMP_pressure;BME280_temperature;BME280_humidity;BME280_pressure;Samples;Min_cycle;Max_cycle;Signal;HPM_P1;HPM_P2
2022/07/16 00:02:52;;;;;;;6.60;3.20;;;15.30;99.90;;;;;;5078364;28;20051;-75
2022/07/16 00:05:17;;;;;;;7.18;2.65;;;15.40;99.90;;;;;;5063307;28;20052;-74
2022/07/16 00:07:43;;;;;;;7.00;3.05;;;15.40;99.90;;;;;;5033254;28;21706;-74
2022/07/16 00:10:09;;;;;;;9.68;2.90;;;15.40;99.90;;;;;;5032641;28;20131;-75
2022/07/16 00:12:35;;;;;;;5.97;3.10;;;15.40;99.90;;;;;;5022629;28;20043;-79
2022/07/16 00:15:03;;;;;;;11.15;3.35;;;15.40;99.90;;;;;;5086855;28;20411;-76
2022/07/16 00:17:29;;;;;;;5.03;2.65;;;15.50;99.90;;;;;;5047945;28;20067;-75
2022/07/16 00:19:55;;;;;;;4.25;2.65;;;15.50;99.90;;;;;;5067761;28;20045;-74
2022/07/16 00:22:21;;;;;;;8.13;3.00;;;15.50;99.90;;;;;;5069981;28;20045;-79
2022/07/16 00:24:46;;;;;;;6.55;2.70;;;15.50;99.90;;;;;;5048103;28;20058;-78
2022/07/16 00:27:12;;;;;;;6.10;2.60;;;15.60;99.90;;;;;;5044139;28;20402;-75
2022/07/16 00:29:38;;;;;;;8.05;2.40;;;15.70;99.90;;;;;;5043469;28;20399;-77
2022/07/16 00:32:04;;;;;;;3.90;2.50;;;15.80;99.90;;;;;;5061434;28;20135;-75
2022/07/16 00:34:29;;;;;;;9.98;2.75;;;15.80;99.90;;;;;;5049475;28;20506;-77
2022/07/16 00:36:55;;;;;;;5.60;2.72;;;15.80;99.90;;;;;;5043313;28;20032;-75
2022/07/16 00:39:21;;;;;;;8.52;3.17;;;15.90;99.90;;;;;;5049894;28;20099;-76
2022/07/16 00:41:48;;;;;;;9.18;3.25;;;15.80;99.90;;;;;;5060333;28;20059;-76
2022/07/16 00:44:16;;;;;;;5.00;2.90;;;15.80;99.90;;;;;;5078124;28;20055;-78
2022/07/16 00:46:42;;;;;;;6.82;3.20;;;15.70;99.90;;;;;;5065963;28;20045;-74
2022/07/16 00:49:09;;;;;;;9.05;3.00;;;15.60;99.90;;;;;;5061950;28;21574;-76
2022/07/16 00:51:40;;;;;;;4.63;2.38;;;15.50;99.90;;;;;;5048749;28;20045;-77
2022/07/16 00:54:06;;;;;;;7.55;2.00;;;15.50;99.90;;;;;;5060786;28;20036;-75
2022/07/16 00:56:32;;;;;;;5.63;1.58;;;15.40;99.90;;;;;;5078702;28;20087;-75
2022/07/16 00:58:57;;;;;;;4.28;1.30;;;15.20;99.90;;;;;;5066332;28;20036;-75
2022/07/16 01:01:23;;;;;;;4.05;1.33;;;15.40;99.90;;;;;;5062099;28;20047;-75
2022/07/16 01:03:49;;;;;;;4.82;1.50;;;15.30;99.90;;;;;;5070177;28;20037;-75
2022/07/16 01:06:16;;;;;;;4.10;1.73;;;15.20;99.90;;;;;;5044491;28;20033;-78
2022/07/16 01:08:44;;;;;;;6.90;1.50;;;15.20;99.90;;;;;;5031051;28;20044;-77
2022/07/16 01:11:12;;;;;;;6.80;1.70;;;15.30;99.90;;;;;;5043727;28;20176;-75
2022/07/16 01:13:40;;;;;;;10.90;2.38;;;15.30;99.90;;;;;;5045485;28;20041;-76
2022/07/16 01:16:06;;;;;;;3.85;1.70;;;15.30;99.90;;;;;;5059627;28;20048;-75
2022/07/16 01:18:32;;;;;;;6.22;1.80;;;15.30;99.90;;;;;;5080752;28;20032;-76
2022/07/16 01:20:58;;;;;;;8.65;2.17;;;15.30;99.90;;;;;;5046076;28;20044;-76
2022/07/16 01:23:24;;;;;;;6.85;2.00;;;15.30;99.90;;;;;;5065675;28;20139;-76
2022/07/16 01:25:51;;;;;;;3.10;2.05;;;15.40;99.90;;;;;;5059907;28;20040;-78
2022/07/16 01:28:18;;;;;;;5.22;2.38;;;15.40;99.90;;;;;;5077474;28;20036;-77
2022/07/16 01:30:45;;;;;;;8.05;2.50;;;15.40;99.90;;;;;;5045751;28;20052;-77
2022/07/16 01:33:23;;;;;;;6.82;2.67;;;15.30;99.90;;;;;;5043838;28;20056;-77
2022/07/16 01:35:51;;;;;;;6.20;2.78;;;15.40;99.90;;;;;;5045027;28;20344;-75
2022/07/16 01:38:17;;;;;;;8.25;2.70;;;15.40;99.90;;;;;;5048842;28;20474;-73
2022/07/16 01:40:43;;;;;;;10.52;2.90;;;15.40;99.90;;;;;;5051476;28;20111;-76
2022/07/16 01:43:18;;;;;;;8.38;2.58;;;15.40;99.90;;;;;;5069360;28;20111;-74
2022/07/16 01:45:44;;;;;;;12.02;3.17;;;15.40;99.90;;;;;;5062175;28;20067;-75
2022/07/16 01:48:11;;;;;;;6.43;2.45;;;15.40;99.90;;;;;;5063436;28;20045;-75
2022/07/16 01:50:36;;;;;;;10.40;2.33;;;15.30;99.90;;;;;;5043520;28;20505;-77
2022/07/16 01:53:03;;;;;;;11.30;2.28;;;15.30;99.90;;;;;;5078477;28;20163;-77
2022/07/16 01:55:29;;;;;;;8.75;2.28;;;15.40;99.90;;;;;;5026400;28;20123;-76
2022/07/16 01:57:55;;;;;;;8.00;2.30;;;15.30;99.90;;;;;;5074594;28;20135;-76
2022/07/16 02:00:20;;;;;;;9.50;1.90;;;15.40;99.90;;;;;;5062205;28;20040;-76
2022/07/16 02:02:46;;;;;;;8.63;2.75;;;15.30;99.90;;;;;;5060132;28;20467;-74
2022/07/16 02:05:12;;;;;;;5.57;2.00;;;15.30;99.90;;;;;;5029903;28;20044;-78
2022/07/16 02:07:38;;;;;;;10.27;2.15;;;15.30;99.90;;;;;;5051554;28;20076;-77
2022/07/16 02:10:05;;;;;;;8.80;2.00;;;15.20;99.90;;;;;;5028912;28;20028;-78
2022/07/16 02:12:30;;;;;;;8.70;1.65;;;15.20;99.90;;;;;;5060568;28;20051;-79
2022/07/16 02:14:56;;;;;;;12.32;1.92;;;15.20;99.90;;;;;;5039412;28;20036;-78
2022/07/16 02:17:21;;;;;;;7.10;1.92;;;15.20;99.90;;;;;;5029728;28;20554;-77
2022/07/16 02:19:47;;;;;;;11.25;1.90;;;15.20;99.90;;;;;;5052939;28;20044;-75
2022/07/16 02:22:14;;;;;;;8.35;1.88;;;15.00;99.90;;;;;;5049819;28;20040;-76
2022/07/16 02:24:41;;;;;;;7.50;1.67;;;15.00;99.90;;;;;;5085130;28;20040;-77
2022/07/16 02:27:06;;;;;;;7.78;1.83;;;15.00;99.90;;;;;;5050026;28;20040;-78
2022/07/16 02:29:32;;;;;;;8.60;1.60;;;14.90;99.90;;;;;;5079466;28;20044;-75
2022/07/16 02:31:58;;;;;;;6.07;1.50;;;14.90;99.90;;;;;;5062284;28;20090;-76
2022/07/16 02:34:24;;;;;;;7.10;2.00;;;14.80;99.90;;;;;;5082880;28;20040;-79
2022/07/16 02:36:49;;;;;;;8.18;2.00;;;14.80;99.90;;;;;;5059319;28;20037;-76
2022/07/16 02:39:15;;;;;;;7.18;2.00;;;14.80;99.90;;;;;;5030746;28;20040;-76
2022/07/16 02:41:41;;;;;;;3.92;1.88;;;14.70;99.90;;;;;;5086128;28;20036;-77
2022/07/16 02:44:06;;;;;;;9.45;2.40;;;14.70;99.90;;;;;;5046049;28;20044;-75
2022/07/16 02:46:32;;;;;;;7.13;1.80;;;14.70;99.90;;;;;;5043383;28;20099;-77
2022/07/16 02:48:58;;;;;;;4.85;1.65;;;14.70;99.90;;;;;;5043551;28;20110;-78
2022/07/16 02:51:23;;;;;;;12.32;1.67;;;14.70;99.90;;;;;;5028095;28;20045;-74
2022/07/16 02:53:49;;;;;;;6.07;1.90;;;14.60;99.90;;;;;;5058666;28;20435;-75
2022/07/16 02:56:15;;;;;;;7.78;2.08;;;14.60;99.90;;;;;;5075003;28;20067;-75
2022/07/16 02:58:41;;;;;;;8.50;1.98;;;14.60;99.90;;;;;;5056510;28;20122;-76
2022/07/16 03:01:07;;;;;;;6.50;2.10;;;14.50;99.90;;;;;;5048009;28;20052;-75
2022/07/16 03:03:32;;;;;;;7.65;1.98;;;14.50;99.90;;;;;;5059351;28;20051;-76
2022/07/16 03:05:58;;;;;;;10.57;2.05;;;14.40;99.90;;;;;;5065192;28;20045;-76
2022/07/16 03:08:24;;;;;;;4.88;1.90;;;14.40;99.90;;;;;;5062890;28;20442;-75
2022/07/16 03:10:49;;;;;;;11.02;2.22;;;14.40;99.90;;;;;;5049253;28;20033;-73
2022/07/16 03:13:15;;;;;;;8.27;2.20;;;14.40;99.90;;;;;;5029863;28;20070;-76
2022/07/16 03:15:41;;;;;;;7.43;2.45;;;14.30;99.90;;;;;;5031670;28;20048;-76
2022/07/16 03:18:07;;;;;;;6.28;2.00;;;14.30;99.90;;;;;;5047705;28;20071;-78
2022/07/16 03:20:32;;;;;;;8.18;2.22;;;14.20;99.90;;;;;;5065971;28;20123;-76
2022/07/16 03:22:58;;;;;;;7.05;2.47;;;14.30;99.90;;;;;;5080426;28;20039;-79
2022/07/16 03:25:24;;;;;;;8.52;2.10;;;14.20;99.90;;;;;;5048555;28;20044;-75
2022/07/16 03:27:49;;;;;;;7.85;2.45;;;14.20;99.90;;;;;;5029321;28;20506;-76
2022/07/16 03:30:17;;;;;;;8.63;2.42;;;14.20;99.90;;;;;;5066701;28;20043;-77
2022/07/16 03:32:42;;;;;;;7.18;2.33;;;14.00;99.90;;;;;;5049499;28;20389;-77
2022/07/16 03:35:11;;;;;;;5.90;2.30;;;14.10;99.90;;;;;;5065313;28;20102;-76
2022/07/16 03:38:57;;;;;;;5.63;2.00;;;14.00;99.90;;;;;;5064554;28;20040;-76
2022/07/16 03:40:23;;;;;;;7.18;2.45;;;14.00;99.90;;;;;;5047639;28;20098;-76
2022/07/16 03:42:48;;;;;;;5.05;2.17;;;13.90;99.90;;;;;;5067421;28;20029;-77
2022/07/16 03:45:14;;;;;;;5.65;2.30;;;13.90;99.90;;;;;;5065225;28;20405;-75
2022/07/16 03:47:40;;;;;;;8.25;2.50;;;14.00;99.90;;;;;;5051039;28;20039;-77
2022/07/16 03:50:06;;;;;;;7.00;2.47;;;14.00;99.90;;;;;;5087320;28;20336;-76
2022/07/16 03:52:31;;;;;;;4.50;2.40;;;13.90;99.90;;;;;;5052342;28;20044;-75
2022/07/16 03:54:57;;;;;;;8.48;2.53;;;13.90;99.90;;;;;;5067584;28;20048;-78
2022/07/16 03:57:23;;;;;;;8.30;2.75;;;13.90;99.90;;;;;;5053030;28;20763;-80
2022/07/16 03:59:48;;;;;;;9.40;2.30;;;14.00;99.90;;;;;;5064585;28;20033;-78
2022/07/16 04:02:14;;;;;;;8.07;2.70;;;14.00;99.90;;;;;;5032657;28;20080;-75
2022/07/16 04:04:40;;;;;;;6.07;2.20;;;13.90;99.90;;;;;;5065602;28;20057;-75
2022/07/16 04:07:05;;;;;;;12.93;2.75;;;13.90;99.90;;;;;;5036852;28;20048;-79
2022/07/16 04:09:31;;;;;;;6.20;2.40;;;13.90;99.90;;;;;;5035340;28;20044;-75
2022/07/16 04:11:57;;;;;;;8.90;2.42;;;13.90;99.90;;;;;;5043354;28;20084;-77
2022/07/16 04:14:22;;;;;;;8.50;2.70;;;13.90;99.90;;;;;;5032044;28;20441;-75
2022/07/16 04:16:48;;;;;;;7.45;2.25;;;13.90;99.90;;;;;;5082422;28;20554;-74
2022/07/16 04:19:14;;;;;;;12.00;2.78;;;13.90;99.90;;;;;;5065712;28;20037;-75
2022/07/16 04:21:40;;;;;;;10.88;2.22;;;13.90;99.90;;;;;;5047223;28;20119;-76
2022/07/16 04:24:05;;;;;;;12.23;2.80;;;14.00;99.90;;;;;;5082297;28;20199;-74
2022/07/16 04:26:31;;;;;;;10.77;2.10;;;14.00;99.90;;;;;;5077521;28;20564;-77
2022/07/16 04:28:57;;;;;;;6.75;2.15;;;13.90;99.90;;;;;;5030987;28;20077;-76
2022/07/16 04:31:23;;;;;;;11.70;2.70;;;13.90;99.90;;;;;;5066182;28;20037;-75
2022/07/16 04:33:49;;;;;;;13.38;2.25;;;13.90;99.90;;;;;;5066347;28;20218;-75
2022/07/16 04:36:15;;;;;;;9.73;2.67;;;13.90;99.90;;;;;;5065896;28;20486;-76
2022/07/16 04:38:40;;;;;;;8.52;2.50;;;13.90;99.90;;;;;;5050771;28;20033;-74
2022/07/16 04:41:06;;;;;;;10.38;1.95;;;13.90;99.90;;;;;;5046890;28;20036;-76
2022/07/16 04:43:32;;;;;;;11.50;1.73;;;14.00;99.90;;;;;;5044190;28;20483;-75
2022/07/16 04:45:57;;;;;;;8.13;1.58;;;14.10;99.90;;;;;;5045657;28;20136;-76
2022/07/16 04:48:23;;;;;;;6.05;1.80;;;14.10;99.90;;;;;;5056654;28;20466;-77
2022/07/16 04:51:26;;;;;;;11.65;1.77;;;14.20;99.90;;;;;;5074718;28;20040;-75
2022/07/16 04:53:52;;;;;;;9.93;1.90;;;14.30;99.90;;;;;;5061115;28;20037;-77
2022/07/16 04:56:17;;;;;;;7.53;1.60;;;14.40;99.90;;;;;;5045900;28;20036;-75
2022/07/16 04:58:43;;;;;;;6.50;1.98;;;14.50;99.90;;;;;;5044073;28;20128;-76
2022/07/16 05:01:09;;;;;;;4.15;1.30;;;14.60;99.90;;;;;;5028659;28;20117;-77
2022/07/16 05:03:34;;;;;;;10.35;1.55;;;14.50;99.90;;;;;;5076963;28;20071;-78
2022/07/16 05:06:00;;;;;;;7.75;1.70;;;14.60;99.90;;;;;;5042572;28;20403;-76
2022/07/16 05:08:26;;;;;;;7.00;1.48;;;14.60;99.90;;;;;;5068131;28;20036;-78
2022/07/16 05:10:51;;;;;;;6.25;1.30;;;14.80;99.90;;;;;;5044796;28;20800;-78
2022/07/16 05:13:17;;;;;;;7.18;1.48;;;14.70;99.90;;;;;;5061145;28;20132;-76
2022/07/16 05:15:42;;;;;;;6.95;1.42;;;14.80;99.90;;;;;;5029688;28;20036;-76
2022/07/16 05:18:09;;;;;;;11.05;1.25;;;14.80;99.90;;;;;;5047450;28;20035;-78
2022/07/16 05:20:35;;;;;;;6.22;1.27;;;14.90;99.90;;;;;;5029063;28;20036;-76
2022/07/16 05:23:00;;;;;;;6.70;1.10;;;14.90;99.90;;;;;;5080020;28;20090;-73
2022/07/16 05:25:26;;;;;;;7.75;1.40;;;14.90;99.90;;;;;;5065870;28;20514;-75
2022/07/16 05:27:52;;;;;;;5.35;1.30;;;14.90;99.90;;;;;;5067295;28;20029;-77
2022/07/16 05:30:18;;;;;;;7.70;1.15;;;15.00;99.90;;;;;;5072460;28;20483;-77
2022/07/16 05:32:44;;;;;;;8.80;1.50;;;15.00;99.90;;;;;;5054191;28;20057;-76
2022/07/16 05:35:12;;;;;;;4.85;1.33;;;15.10;99.90;;;;;;5024704;28;20333;-79
2022/07/16 05:37:38;;;;;;;9.25;1.60;;;15.20;99.90;;;;;;5021853;28;20119;-78
2022/07/16 05:40:05;;;;;;;8.82;1.77;;;15.20;99.90;;;;;;5010323;28;20057;-80
2022/07/16 05:42:31;;;;;;;6.38;1.40;;;15.30;99.90;;;;;;5010195;28;20029;-80
2022/07/16 05:44:57;;;;;;;5.32;1.05;;;15.20;99.90;;;;;;5015610;28;20364;-80
2022/07/16 05:47:22;;;;;;;7.65;1.25;;;15.30;99.90;;;;;;5043982;28;20056;-77
2022/07/16 05:49:48;;;;;;;11.25;1.40;;;15.30;99.90;;;;;;5038672;28;20068;-77
2022/07/16 05:52:14;;;;;;;5.53;1.40;;;15.40;99.90;;;;;;5019827;28;20493;-76
2022/07/16 05:54:40;;;;;;;7.75;1.38;;;15.40;99.90;;;;;;5032794;28;20037;-78
2022/07/16 05:57:05;;;;;;;7.30;1.38;;;15.40;99.90;;;;;;5043764;28;20053;-79
2022/07/16 05:59:34;;;;;;;8.85;1.55;;;15.40;99.90;;;;;;5014737;28;20052;-78
2022/07/16 06:02:00;;;;;;;8.93;1.52;;;15.40;99.90;;;;;;5045362;28;20028;-76
2022/07/16 06:04:25;;;;;;;10.18;1.42;;;15.50;99.90;;;;;;5032071;28;20379;-77
2022/07/16 06:06:51;;;;;;;8.52;1.65;;;15.50;99.90;;;;;;5059657;28;20148;-76
2022/07/16 06:09:17;;;;;;;11.05;1.40;;;15.60;99.90;;;;;;5043643;28;20507;-76
2022/07/16 06:11:43;;;;;;;5.95;1.15;;;15.60;99.90;;;;;;5013781;28;20491;-77
2022/07/16 06:14:08;;;;;;;9.52;1.38;;;15.50;99.90;;;;;;5016937;28;20044;-77
2022/07/16 06:16:34;;;;;;;9.45;1.30;;;15.60;99.90;;;;;;5047292;28;20084;-75
2022/07/16 06:19:00;;;;;;;5.13;1.08;;;15.60;99.90;;;;;;5035124;28;20163;-74
2022/07/16 06:21:25;;;;;;;7.93;1.10;;;15.70;99.90;;;;;;5025841;28;20068;-75
2022/07/16 06:23:51;;;;;;;11.40;1.52;;;15.80;99.90;;;;;;5029587;28;20108;-76
2022/07/16 06:26:17;;;;;;;9.52;1.67;;;15.80;99.90;;;;;;5026338;28;20041;-77
2022/07/16 06:28:42;;;;;;;7.35;1.30;;;15.80;99.90;;;;;;5037692;28;20120;-78
2022/07/16 06:31:08;;;;;;;7.30;1.50;;;15.80;99.90;;;;;;5007296;28;20500;-76
2022/07/16 06:33:33;;;;;;;11.88;1.40;;;15.90;99.90;;;;;;5006176;28;20080;-73
2022/07/16 06:35:59;;;;;;;4.00;0.82;;;15.90;99.90;;;;;;5023410;28;20822;-75
2022/07/16 06:38:25;;;;;;;13.30;1.30;;;15.90;99.90;;;;;;5014068;28;20433;-75
2022/07/16 06:40:51;;;;;;;6.10;1.02;;;15.80;99.90;;;;;;5026160;28;20045;-76
2022/07/16 06:43:16;;;;;;;7.40;1.02;;;15.90;99.90;;;;;;5017747;28;20468;-75
2022/07/16 06:45:45;;;;;;;7.63;1.40;;;16.00;99.90;;;;;;5012667;28;20095;-75
2022/07/16 06:48:11;;;;;;;4.22;1.05;;;16.00;99.90;;;;;;5030580;28;20175;-74
2022/07/16 06:50:37;;;;;;;4.25;0.68;;;16.00;99.90;;;;;;5022566;28;20041;-73
2022/07/16 06:53:02;;;;;;;5.50;1.20;;;16.10;99.90;;;;;;5052880;28;20045;-75
2022/07/16 06:55:28;;;;;;;3.88;0.75;;;16.10;99.90;;;;;;5033826;28;20186;-75
2022/07/16 06:57:54;;;;;;;5.80;1.13;;;16.10;99.90;;;;;;5018605;28;20061;-74
2022/07/16 07:00:20;;;;;;;7.43;1.15;;;16.20;99.90;;;;;;5017105;28;20827;-74
2022/07/16 07:02:45;;;;;;;4.80;1.20;;;16.20;99.90;;;;;;5035859;28;20049;-74
2022/07/16 07:05:11;;;;;;;7.35;1.40;;;16.20;99.90;;;;;;5032419;28;20040;-74
2022/07/16 07:07:37;;;;;;;9.13;1.10;;;16.10;99.90;;;;;;5006200;28;20047;-74
2022/07/16 07:10:03;;;;;;;7.97;1.27;;;16.20;99.90;;;;;;5003080;28;20727;-74
2022/07/16 07:12:29;;;;;;;5.95;1.08;;;16.50;99.90;;;;;;5022555;28;20117;-73
2022/07/16 07:14:54;;;;;;;5.60;0.82;;;16.60;99.90;;;;;;5017495;28;20033;-74
2022/07/16 07:17:20;;;;;;;4.47;0.77;;;16.70;99.90;;;;;;5053692;28;20037;-74
2022/07/16 07:19:46;;;;;;;4.15;0.75;;;16.70;99.90;;;;;;5023141;28;20033;-76
2022/07/16 07:22:11;;;;;;;6.20;0.82;;;16.70;99.90;;;;;;5056546;28;20037;-74
2022/07/16 07:24:37;;;;;;;9.52;1.73;;;16.70;99.90;;;;;;5026229;28;20131;-77
2022/07/16 07:27:03;;;;;;;7.75;1.50;;;16.80;99.90;;;;;;5058106;28;20098;-75
2022/07/16 07:29:28;;;;;;;3.45;1.00;;;17.00;99.90;;;;;;5025464;28;20263;-75
2022/07/16 07:31:54;;;;;;;6.03;1.02;;;17.10;99.90;;;;;;5025892;28;20045;-75
2022/07/16 07:34:20;;;;;;;4.93;1.10;;;17.00;99.90;;;;;;5012749;28;20532;-75
2022/07/16 07:36:45;;;;;;;10.73;1.50;;;17.10;99.90;;;;;;5025662;28;20368;-75
2022/07/16 07:39:11;;;;;;;5.70;1.08;;;17.00;99.90;;;;;;5023432;28;20041;-77
2022/07/16 07:41:37;;;;;;;9.32;1.35;;;17.00;99.90;;;;;;5033665;28;20095;-74
2022/07/16 07:44:03;;;;;;;4.97;1.17;;;16.90;99.90;;;;;;5037933;28;20049;-74
2022/07/16 07:46:28;;;;;;;7.75;1.60;;;16.90;99.90;;;;;;5059355;28;20135;-74
2022/07/16 07:48:54;;;;;;;8.98;1.33;;;17.00;99.90;;;;;;5022246;28;20061;-75
2022/07/16 07:51:20;;;;;;;5.50;0.90;;;17.00;99.90;;;;;;5039394;28;20118;-75
2022/07/16 07:53:45;;;;;;;6.13;0.82;;;17.10;99.90;;;;;;5022103;28;20049;-75
2022/07/16 07:56:12;;;;;;;8.45;1.40;;;17.00;99.90;;;;;;5048648;28;20134;-74
2022/07/16 07:58:38;;;;;;;6.10;1.00;;;17.30;99.90;;;;;;5032241;28;20045;-74
2022/07/16 08:01:04;;;;;;;7.13;0.98;;;17.30;99.90;;;;;;5050194;28;20091;-73
2022/07/16 08:03:30;;;;;;;2.88;0.90;;;17.30;99.90;;;;;;5035256;28;20041;-75
2022/07/16 08:06:16;;;;;;;12.23;1.42;;;17.40;99.90;;;;;;5019783;28;20609;-74
2022/07/16 08:08:41;;;;;;;8.85;1.15;;;17.30;99.90;;;;;;5034117;28;20103;-74
2022/07/16 08:11:08;;;;;;;5.18;0.98;;;17.40;99.90;;;;;;5038836;28;20053;-73
2022/07/16 08:13:34;;;;;;;5.88;1.10;;;17.30;99.90;;;;;;5022416;28;20036;-73
2022/07/16 08:15:59;;;;;;;6.18;1.10;;;17.50;99.90;;;;;;5021335;28;20381;-74
2022/07/16 08:18:25;;;;;;;5.63;1.10;;;17.50;99.90;;;;;;4998509;28;20047;-74
2022/07/16 08:20:51;;;;;;;6.05;1.30;;;17.60;99.90;;;;;;5016338;28;20572;-75
2022/07/16 08:25:44;;;;;;;6.78;1.45;;;17.80;99.90;;;;;;5006535;28;20041;-75
2022/07/16 08:26:02;;;;;;;8.60;1.65;;;17.90;99.90;;;;;;5022339;28;20096;-73
2022/07/16 08:28:27;;;;;;;6.43;1.20;;;17.80;99.90;;;;;;5039185;28;20087;-72
2022/07/16 08:30:53;;;;;;;7.65;1.23;;;17.70;99.90;;;;;;5025881;28;20052;-74
2022/07/16 08:33:19;;;;;;;6.03;1.25;;;17.60;99.90;;;;;;5058134;28;20056;-73
2022/07/16 08:35:45;;;;;;;11.35;1.42;;;17.60;99.90;;;;;;5020183;28;20057;-75
2022/07/16 08:38:11;;;;;;;7.45;1.77;;;17.50;99.90;;;;;;5050905;28;20535;-73
2022/07/16 08:40:41;;;;;;;9.50;1.48;;;17.30;99.90;;;;;;5053856;28;20160;-74
2022/07/16 08:43:08;;;;;;;8.57;1.35;;;17.40;99.90;;;;;;5019698;28;20038;-73
2022/07/16 08:45:36;;;;;;;3.92;1.30;;;17.60;99.90;;;;;;5025120;28;20110;-73
2022/07/16 08:48:03;;;;;;;7.93;1.40;;;17.60;99.90;;;;;;5039784;28;20179;-75
2022/07/16 08:50:28;;;;;;;7.60;1.50;;;17.50;99.90;;;;;;5032369;28;20478;-78
2022/07/16 08:52:57;;;;;;;5.10;1.10;;;17.60;99.90;;;;;;5062205;28;20041;-73
2022/07/16 08:55:25;;;;;;;6.97;1.30;;;17.50;99.90;;;;;;5008624;28;20033;-74
2022/07/16 08:57:51;;;;;;;5.55;1.10;;;17.30;99.90;;;;;;5055234;28;20407;-74
2022/07/16 09:00:18;;;;;;;12.18;1.20;;;17.40;99.90;;;;;;5055662;28;20101;-76
2022/07/16 09:02:45;;;;;;;5.40;1.20;;;17.30;99.90;;;;;;5023009;28;20357;-77
2022/07/16 09:05:11;;;;;;;7.13;1.35;;;17.60;99.90;;;;;;5025383;28;20044;-75
2022/07/16 09:07:37;;;;;;;9.43;1.30;;;17.60;99.90;;;;;;5002632;28;20056;-75
2022/07/16 09:10:07;;;;;;;7.68;1.20;;;17.90;99.90;;;;;;5053081;28;20036;-75
2022/07/16 09:12:40;;;;;;;7.18;1.40;;;18.10;99.90;;;;;;5032856;28;20073;-77
2022/07/16 09:15:29;;;;;;;5.40;1.10;;;18.10;99.90;;;;;;5030870;28;20124;-75
2022/07/16 09:18:16;;;;;;;4.45;1.15;;;18.30;99.90;;;;;;5031686;28;20388;-75
2022/07/16 09:20:53;;;;;;;4.40;1.58;;;18.20;99.90;;;;;;5049984;28;20087;-76
2022/07/16 09:23:23;;;;;;;2.83;1.10;;;18.30;99.90;;;;;;5050389;28;20041;-76
2022/07/16 09:25:53;;;;;;;5.60;1.35;;;18.10;99.90;;;;;;5017263;28;20124;-77
2022/07/16 09:28:20;;;;;;;7.70;1.23;;;18.30;99.90;;;;;;5065866;28;20056;-74
2022/07/16 09:30:46;;;;;;;4.80;1.00;;;18.10;99.90;;;;;;5017795;28;20112;-74
2022/07/16 09:33:20;;;;;;;7.40;1.20;;;18.10;99.90;;;;;;5068818;28;20052;-75
2022/07/16 09:35:47;;;;;;;;;;;18.20;99.90;;;;;;5052071;28;20379;-75
2022/07/16 09:38:12;;;;;;;7.25;1.33;;;18.10;99.90;;;;;;5017329;28;20027;-74
2022/07/16 09:40:46;;;;;;;5.07;1.10;;;18.30;99.90;;;;;;5033365;28;20095;-76
2022/07/16 09:43:12;;;;;;;8.60;1.42;;;18.50;99.90;;;;;;5035813;28;20439;-76
2022/07/16 09:45:39;;;;;;;5.28;1.15;;;18.60;99.90;;;;;;5034901;28;20131;-75
2022/07/16 09:48:21;;;;;;;5.43;1.20;;;18.80;99.90;;;;;;5016678;28;20037;-75
2022/07/16 09:50:47;;;;;;;8.25;1.30;;;18.60;99.90;;;;;;5051602;28;20049;-75
2022/07/16 09:53:15;;;;;;;5.30;1.58;;;18.80;99.90;;;;;;5022184;28;20064;-77
2022/07/16 09:56:01;;;;;;;4.72;1.15;;;18.90;99.90;;;;;;5031760;28;20191;-76
2022/07/16 09:58:27;;;;;;;7.05;1.17;;;19.10;99.90;;;;;;5016804;28;20045;-76
2022/07/16 10:00:54;;;;;;;6.13;1.20;;;19.10;99.90;;;;;;5016586;28;20091;-75
2022/07/16 10:03:20;;;;;;;7.03;1.02;;;19.20;99.90;;;;;;5035172;28;20045;-76
2022/07/16 10:05:46;;;;;;;4.32;0.90;;;18.90;99.70;;;;;;5050044;28;20049;-76
2022/07/16 10:08:13;;;;;;;4.43;1.05;;;19.20;99.70;;;;;;5062559;28;20518;-75
2022/07/16 10:10:39;;;;;;;5.15;1.05;;;19.40;99.60;;;;;;5035102;28;20049;-75
2022/07/16 10:13:05;;;;;;;5.07;1.05;;;19.50;99.40;;;;;;5031993;28;20045;-75
2022/07/16 10:15:31;;;;;;;8.20;1.30;;;19.50;99.50;;;;;;5016568;28;20057;-74
2022/07/16 10:17:57;;;;;;;6.93;1.15;;;19.40;99.50;;;;;;5067590;28;20103;-74
2022/07/16 10:20:23;;;;;;;4.30;1.05;;;19.70;99.40;;;;;;5025236;28;20116;-75
2022/07/16 10:22:50;;;;;;;3.88;0.77;;;19.60;99.70;;;;;;5020698;28;20107;-78
2022/07/16 10:25:25;;;;;;;5.75;1.23;;;19.50;99.90;;;;;;5062642;28;20128;-76
2022/07/16 10:27:52;;;;;;;;;;;19.10;99.90;;;;;;5043681;28;20048;-75
2022/07/16 10:30:29;;;;;;;3.30;0.88;;;19.00;99.90;;;;;;5025595;28;19924;-76
2022/07/16 10:33:02;;;;;;;3.78;0.80;;;19.40;99.90;;;;;;5053633;28;20053;-76
2022/07/16 10:35:34;;;;;;;5.95;1.20;;;19.50;99.90;;;;;;5025596;28;20076;-75
2022/07/16 10:38:12;;;;;;;7.00;1.48;;;19.60;99.90;;;;;;5024963;28;20040;-75
2022/07/16 10:40:41;;;;;;;6.47;1.35;;;19.60;99.90;;;;;;5055167;28;20037;-77
2022/07/16 10:43:15;;;;;;;6.32;0.93;;;19.40;99.80;;;;;;5043382;28;20044;-77
2022/07/16 10:46:00;;;;;;;6.15;1.33;;;19.40;99.90;;;;;;5060914;28;20045;-78
2022/07/16 10:48:38;;;;;;;7.38;1.13;;;19.60;99.90;;;;;;5028659;28;20056;-74
2022/07/16 10:51:24;;;;;;;5.10;1.30;;;19.50;99.90;;;;;;5009801;28;20045;-75
2022/07/16 10:53:56;;;;;;;7.47;1.25;;;19.40;99.90;;;;;;5007707;28;20029;-76
2022/07/16 10:56:35;;;;;;;4.88;1.10;;;19.20;99.90;;;;;;5057524;28;20048;-74
2022/07/16 10:59:06;;;;;;;7.35;1.30;;;19.20;99.90;;;;;;5046628;28;20396;-75
2022/07/16 11:01:32;;;;;;;6.60;1.45;;;19.50;99.90;;;;;;5010452;28;20040;-75
2022/07/16 11:03:58;;;;;;;14.40;1.42;;;19.40;99.90;;;;;;5024089;28;20037;-75
2022/07/16 11:06:23;;;;;;;8.90;1.52;;;19.40;99.90;;;;;;5014990;28;20115;-76
2022/07/16 11:08:53;;;;;;;5.40;1.00;;;19.30;99.90;;;;;;5021754;28;20116;-73
2022/07/16 11:11:20;;;;;;;3.40;1.10;;;19.10;99.90;;;;;;5030517;28;20059;-74
2022/07/16 11:13:52;;;;;;;6.50;1.42;;;19.60;99.90;;;;;;5017877;28;20041;-76
2022/07/16 11:16:18;;;;;;;8.25;1.33;;;19.50;99.90;;;;;;5003518;28;20053;-75
2022/07/16 11:18:44;;;;;;;4.70;1.02;;;19.70;99.90;;;;;;5053779;28;20046;-74
2022/07/16 11:21:10;;;;;;;6.53;1.27;;;19.90;99.90;;;;;;5033351;28;20417;-74
2022/07/16 11:23:53;;;;;;;5.85;1.17;;;19.60;99.90;;;;;;5022230;28;20199;-75
2022/07/16 11:26:22;;;;;;;4.93;1.10;;;19.70;99.90;;;;;;5003083;28;20453;-76
2022/07/16 11:29:03;;;;;;;8.50;1.15;;;19.90;99.90;;;;;;5003822;28;20136;-77
2022/07/16 11:31:31;;;;;;;5.03;0.93;;;20.10;99.50;;;;;;5040113;28;20052;-73
2022/07/16 11:34:09;;;;;;;6.45;1.10;;;20.20;99.90;;;;;;5045368;28;20078;-78
2022/07/16 11:36:37;;;;;;;6.75;1.30;;;20.30;99.70;;;;;;5020263;28;20056;-77
2022/07/16 11:39:07;;;;;;;3.65;0.95;;;20.30;99.90;;;;;;5019978;28;20336;-76
2022/07/16 11:41:34;;;;;;;5.63;1.08;;;20.20;99.80;;;;;;5020276;28;20508;-77
2022/07/16 11:44:11;;;;;;;9.40;1.80;;;19.80;99.90;;;;;;5030220;28;20487;-75
2022/07/16 11:46:46;;;;;;;6.00;1.33;;;19.80;99.90;;;;;;5027982;28;20044;-73
2022/07/16 11:49:20;;;;;;;7.22;1.40;;;19.80;99.90;;;;;;5047006;28;20048;-73
2022/07/16 11:51:46;;;;;;;5.38;1.30;;;20.10;99.90;;;;;;5036973;28;20045;-74
2022/07/16 11:54:12;;;;;;;6.60;1.40;;;20.30;99.90;;;;;;5051115;28;20053;-76
2022/07/16 11:56:39;;;;;;;4.30;1.02;;;20.80;99.90;;;;;;5064392;28;20407;-77
2022/07/16 11:59:22;;;;;;;7.45;1.33;;;20.60;99.70;;;;;;5019391;28;20083;-75
2022/07/16 12:01:57;;;;;;;7.50;1.52;;;20.70;99.40;;;;;;5065436;28;20069;-75
2022/07/16 12:04:35;;;;;;;7.05;1.30;;;20.90;99.90;;;;;;5037322;28;20041;-78
2022/07/16 12:07:02;;;;;;;5.32;1.40;;;20.80;99.70;;;;;;5036055;28;20052;-77
2022/07/16 12:09:34;;;;;;;6.32;1.25;;;20.50;99.50;;;;;;5018963;28;20044;-75
2022/07/16 12:12:04;;;;;;;8.02;1.50;;;20.40;99.90;;;;;;5067668;28;20135;-77
2022/07/16 12:14:53;;;;;;;6.63;1.15;;;20.50;99.90;;;;;;5017769;28;20511;-76
2022/07/16 12:17:32;;;;;;;6.90;1.30;;;20.30;99.60;;;;;;5012544;28;20049;-74
2022/07/16 12:20:12;;;;;;;7.80;1.60;;;20.50;99.80;;;;;;5029011;28;20118;-78
2022/07/16 12:23:03;;;;;;;5.45;1.30;;;21.00;99.30;;;;;;5012173;28;20124;-78
2022/07/16 12:25:31;;;;;;;8.38;1.48;;;20.70;98.80;;;;;;5039217;28;20044;-78
2022/07/16 12:28:00;;;;;;;6.55;1.45;;;20.60;99.10;;;;;;5028130;28;20105;-77
2022/07/16 12:30:38;;;;;;;8.32;1.20;;;20.20;99.50;;;;;;5062550;28;20079;-76
2022/07/16 12:33:24;;;;;;;4.85;1.20;;;20.40;99.70;;;;;;5030079;28;20140;-74
2022/07/16 12:35:50;;;;;;;6.78;1.50;;;21.00;99.90;;;;;;5031896;28;20171;-76
2022/07/16 12:38:58;;;;;;;12.48;1.90;;;21.40;99.40;;;;;;5015351;28;20132;-79
2022/07/16 12:41:42;;;;;;;8.20;1.73;;;21.50;99.30;;;;;;5030125;28;20059;-78
2022/07/16 12:44:19;;;;;;;6.53;1.25;;;21.00;98.30;;;;;;5029860;28;20083;-76
2022/07/16 12:46:50;;;;;;;8.32;1.58;;;21.00;99.10;;;;;;5015951;28;20045;-78
2022/07/16 12:49:20;;;;;;;9.07;1.48;;;21.30;99.30;;;;;;5014102;28;20127;-78
2022/07/16 12:51:56;;;;;;;5.32;1.38;;;20.80;98.90;;;;;;5029482;28;20162;-78